Time;durP1;ratioP1;P1;durP2;ratioP2;P2;SDS_P1;SDS_P2;PMS_P1;PMS_P2;Temp;Humidity;BMP_temperature;BMP_pressure;BME280_temperature;BME280_humidity;BME280_pressure;Samples;Min_cycle;Max_cycle;Signal;HPM_P1;HPM_P2
2023/09/06 00:01:33;;;;;;;0.43;0.43;;;15.80;99.90;;;;;;5056754;28;20103;-78
2023/09/06 00:03:59;;;;;;;0.10;0.10;;;15.80;99.90;;;;;;5056790;28;20027;-76
2023/09/06 00:06:24;;;;;;;0.10;0.10;;;15.90;99.90;;;;;;5038310;28;20036;-81
2023/09/06 00:08:51;;;;;;;0.10;0.10;;;15.80;99.90;;;;;;5056599;28;20012;-75
2023/09/06 00:11:16;;;;;;;0.10;0.10;;;15.80;99.90;;;;;;5057931;28;20043;-75
2023/09/06 00:13:42;;;;;;;0.20;0.20;;;15.80;99.90;;;;;;5060355;28;20024;-78
2023/09/06 00:16:08;;;;;;;0.10;0.10;;;15.80;99.90;;;;;;5060210;28;20028;-75
2023/09/06 00:18:34;;;;;;;0.10;0.10;;;15.80;99.90;;;;;;5060284;28;20216;-75
2023/09/06 00:20:59;;;;;;;0.10;0.10;;;15.80;99.90;;;;;;5060121;28;20059;-75
2023/09/06 00:23:26;;;;;;;0.08;0.08;;;15.80;99.90;;;;;;5042308;28;20020;-75
2023/09/06 00:25:54;;;;;;;0.10;0.10;;;15.80;99.90;;;;;;5059962;28;20090;-76
2023/09/06 00:28:20;;;;;;;0.10;0.10;;;15.80;99.90;;;;;;5060162;28;20021;-75
2023/09/06 00:30:46;;;;;;;0.05;0.05;;;;;;;;;;5060629;28;20036;-78
2023/09/06 00:33:13;;;;;;;0.10;0.10;;;15.80;99.90;;;;;;5060429;28;20279;-78
2023/09/06 00:35:39;;;;;;;0.10;0.10;;;15.80;99.90;;;;;;5060001;28;20313;-75
2023/09/06 00:38:06;;;;;;;0.10;0.10;;;15.90;99.90;;;;;;5059803;28;20024;-75
2023/09/06 00:40:37;;;;;;;0.60;0.60;;;15.80;99.90;;;;;;5059966;28;20028;-78
2023/09/06 00:43:04;;;;;;;0.20;0.20;;;14.50;99.90;;;;;;5059945;28;20214;-77
2023/09/06 00:45:48;;;;;;;1.35;1.35;;;15.70;99.90;;;;;;5059757;28;20333;-77
2023/09/06 00:48:19;;;;;;;0.40;0.40;;;15.60;99.90;;;;;;5059842;28;20028;-78
2023/09/06 00:50:53;;;;;;;0.05;0.05;;;15.70;99.90;;;;;;5059866;28;20465;-77
2023/09/06 00:53:21;;;;;;;0.00;0.00;;;15.60;99.90;;;;;;5059954;28;20240;-77
2023/09/06 00:55:49;;;;;;;0.10;0.10;;;15.70;99.90;;;;;;5059568;28;20032;-75
2023/09/06 00:58:17;;;;;;;0.90;0.90;;;15.70;99.90;;;;;;5059548;28;20015;-75
2023/09/06 01:00:44;;;;;;;0.10;0.10;;;15.70;99.90;;;;;;5059649;28;20027;-75
2023/09/06 01:03:10;;;;;;;2.08;1.98;;;15.70;99.90;;;;;;5059672;28;20507;-76
2023/09/06 01:06:09;;;;;;;0.50;0.50;;;15.70;99.90;;;;;;5059459;28;20040;-75
2023/09/06 01:08:46;;;;;;;1.42;1.38;;;15.60;99.90;;;;;;5059979;28;20017;-75
2023/09/06 01:11:22;;;;;;;0.20;0.20;;;15.50;99.90;;;;;;5059381;28;20032;-75
2023/09/06 01:13:49;;;;;;;1.55;1.45;;;15.60;99.90;;;;;;5059373;28;20395;-75
2023/09/06 01:16:30;;;;;;;0.10;0.10;;;15.60;99.90;;;;;;5041012;28;20629;-76
2023/09/06 01:18:57;;;;;;;0.10;0.10;;;15.60;99.90;;;;;;5059062;28;20032;-76
2023/09/06 01:21:36;;;;;;;0.03;0.03;;;15.60;99.90;;;;;;5059225;28;20025;-77
2023/09/06 01:24:03;;;;;;;0.10;0.10;;;15.70;99.90;;;;;;5061304;28;20704;-76
2023/09/06 01:26:31;;;;;;;1.25;1.15;;;15.60;99.90;;;;;;5042964;28;20128;-76
2023/09/06 01:28:58;;;;;;;0.10;0.10;;;15.60;99.90;;;;;;5041055;28;20025;-76
2023/09/06 01:31:23;;;;;;;0.15;0.15;;;15.60;99.90;;;;;;5059068;28;20036;-76
2023/09/06 01:33:49;;;;;;;0.10;0.10;;;15.60;99.90;;;;;;5059068;28;20233;-81
2023/09/06 01:36:15;;;;;;;0.35;0.35;;;15.60;99.90;;;;;;5074472;28;20510;-76
2023/09/06 01:38:41;;;;;;;0.10;0.10;;;15.20;99.90;;;;;;5058941;28;20509;-76
2023/09/06 01:41:11;;;;;;;0.30;0.30;;;15.60;99.90;;;;;;5058826;28;20021;-77
2023/09/06 01:43:37;;;;;;;4.85;3.25;;;15.60;99.90;;;;;;5040860;28;20025;-77
2023/09/06 01:46:03;;;;;;;0.17;0.17;;;15.60;99.90;;;;;;5058613;28;20340;-77
2023/09/06 01:48:29;;;;;;;0.00;0.00;;;15.60;99.90;;;;;;5058798;28;20754;-76
2023/09/06 01:50:55;;;;;;;0.63;0.63;;;15.60;99.90;;;;;;5058612;28;20402;-76
2023/09/06 01:53:22;;;;;;;0.00;0.00;;;15.50;99.90;;;;;;5058625;28;20020;-77
2023/09/06 01:55:49;;;;;;;0.10;0.10;;;15.50;99.90;;;;;;5040748;28;20494;-76
2023/09/06 01:58:15;;;;;;;0.00;0.00;;;15.60;99.90;;;;;;5058650;28;20104;-76
2023/09/06 02:00:41;;;;;;;0.10;0.10;;;15.50;99.90;;;;;;5058234;28;20361;-78
2023/09/06 02:03:11;;;;;;;3.13;2.92;;;15.50;99.90;;;;;;5058635;28;20021;-75
2023/09/06 02:05:36;;;;;;;0.00;0.00;;;15.50;99.90;;;;;;5041003;28;20031;-75
2023/09/06 02:08:04;;;;;;;0.10;0.10;;;15.50;99.90;;;;;;5058281;28;20029;-75
2023/09/06 02:10:30;;;;;;;0.32;0.32;;;15.50;99.90;;;;;;5058217;28;20029;-75
2023/09/06 02:12:55;;;;;;;0.10;0.10;;;15.40;99.90;;;;;;5058218;28;20029;-75
2023/09/06 02:15:23;;;;;;;0.10;0.10;;;15.40;99.90;;;;;;5058081;28;20031;-81
2023/09/06 02:17:48;;;;;;;0.10;0.10;;;15.40;99.90;;;;;;5058049;28;20016;-75
2023/09/06 02:20:20;;;;;;;1.13;1.13;;;15.40;99.90;;;;;;5058098;28;20062;-75
2023/09/06 02:22:51;;;;;;;2.30;2.15;;;15.30;99.90;;;;;;5058502;28;20510;-76
2023/09/06 02:25:21;;;;;;;3.65;3.33;;;15.40;99.90;;;;;;5024814;28;20430;-75
2023/09/06 02:27:48;;;;;;;3.13;2.92;;;15.30;99.90;;;;;;5042110;28;20051;-75
2023/09/06 02:30:14;;;;;;;10.77;4.68;;;15.30;99.90;;;;;;5058403;28;20040;-78
2023/09/06 02:32:40;;;;;;;0.98;0.98;;;15.30;99.90;;;;;;5058130;28;20294;-78
2023/09/06 02:35:07;;;;;;;0.90;0.90;;;15.30;99.90;;;;;;5073703;28;20028;-76
2023/09/06 02:37:34;;;;;;;0.20;0.20;;;15.30;99.90;;;;;;5040408;28;20027;-77
2023/09/06 02:40:00;;;;;;;7.20;5.05;;;15.20;99.90;;;;;;5058111;28;20031;-77
2023/09/06 02:42:26;;;;;;;0.98;0.98;;;15.20;99.90;;;;;;5057602;28;20032;-75
2023/09/06 02:44:53;;;;;;;7.72;3.35;;;15.20;99.90;;;;;;5058142;28;20020;-78
2023/09/06 02:47:25;;;;;;;4.22;3.92;;;15.10;99.90;;;;;;5058867;28;20021;-77
2023/09/06 02:49:55;;;;;;;2.63;2.45;;;15.20;99.90;;;;;;5058043;28;20117;-75
2023/09/06 02:52:28;;;;;;;3.15;2.95;;;15.20;99.90;;;;;;5058038;28;20138;-78
2023/09/06 02:54:57;;;;;;;96.50;11.53;;;15.10;99.90;;;;;;5058086;28;20031;-78
2023/09/06 02:57:25;;;;;;;0.10;0.10;;;15.20;99.90;;;;;;5057627;28;20259;-75
2023/09/06 02:59:51;;;;;;;0.32;0.32;;;13.30;99.90;;;;;;5023643;28;20012;-76
2023/09/06 03:02:21;;;;;;;0.10;0.10;;;15.20;99.90;;;;;;5023325;28;20481;-77
2023/09/06 03:04:51;;;;;;;2.08;2.03;;;12.60;99.90;;;;;;5057294;28;20029;-75
2023/09/06 03:07:19;;;;;;;0.10;0.10;;;15.10;99.90;;;;;;5057476;28;20025;-79
2023/09/06 03:09:44;;;;;;;0.10;0.10;;;15.10;99.90;;;;;;5057435;28;20017;-75
2023/09/06 03:12:14;;;;;;;0.10;0.10;;;15.30;99.90;;;;;;5057441;28;20043;-75
2023/09/06 03:14:44;;;;;;;0.80;0.75;;;15.00;99.90;;;;;;5040729;28;20035;-76
2023/09/06 03:17:11;;;;;;;0.00;0.00;;;15.00;99.90;;;;;;5057603;28;20029;-75
2023/09/06 03:19:41;;;;;;;1.75;1.65;;;15.00;99.90;;;;;;5057425;28;20028;-75
2023/09/06 03:22:12;;;;;;;0.10;0.10;;;15.00;99.90;;;;;;5057381;28;20683;-74
2023/09/06 03:24:40;;;;;;;0.10;0.10;;;15.70;99.90;;;;;;5057635;28;20488;-78
2023/09/06 03:27:07;;;;;;;0.85;0.85;;;14.90;99.90;;;;;;5057320;28;20044;-75
2023/09/06 03:29:36;;;;;;;0.10;0.10;;;14.00;99.90;;;;;;5057349;28;20103;-75
2023/09/06 03:32:04;;;;;;;0.10;0.10;;;14.90;99.90;;;;;;5057360;28;20017;-75
2023/09/06 03:34:30;;;;;;;0.05;0.05;;;14.80;99.90;;;;;;5039537;28;20024;-77
2023/09/06 03:36:57;;;;;;;0.13;0.13;;;14.80;99.90;;;;;;5039217;28;20303;-78
2023/09/06 03:39:28;;;;;;;0.00;0.00;;;14.80;99.90;;;;;;5039351;28;20025;-82
2023/09/06 03:42:00;;;;;;;0.20;0.20;;;14.70;99.90;;;;;;5057580;28;20213;-79
2023/09/06 03:44:27;;;;;;;0.08;0.08;;;14.70;99.90;;;;;;5057500;28;20048;-78
2023/09/06 03:46:56;;;;;;;0.00;0.00;;;14.60;99.90;;;;;;5042204;28;20024;-77
2023/09/06 03:49:23;;;;;;;0.00;0.00;;;14.60;99.90;;;;;;5061728;28;20667;-77
2023/09/06 03:51:50;;;;;;;0.38;0.38;;;14.60;99.90;;;;;;5026559;28;20356;-75
2023/09/06 03:54:18;;;;;;;0.25;0.25;;;14.60;99.90;;;;;;5043595;28;20305;-78
2023/09/06 03:56:44;;;;;;;0.55;0.55;;;14.50;99.90;;;;;;5044042;28;20276;-75
2023/09/06 03:59:11;;;;;;;0.00;0.00;;;14.50;99.90;;;;;;5061992;28;20046;-78
2023/09/06 04:01:37;;;;;;;0.10;0.10;;;14.50;99.90;;;;;;5043916;28;20225;-78
2023/09/06 04:04:04;;;;;;;0.10;0.10;;;15.90;99.90;;;;;;5044223;28;20017;-77
2023/09/06 04:06:30;;;;;;;0.10;0.10;;;14.40;99.90;;;;;;5061150;28;20224;-77
2023/09/06 04:08:56;;;;;;;0.00;0.00;;;14.40;99.90;;;;;;5060950;28;20024;-77
2023/09/06 04:11:23;;;;;;;0.00;0.00;;;14.40;99.90;;;;;;5061024;28;20218;-78
2023/09/06 04:13:51;;;;;;;0.00;0.00;;;14.30;99.90;;;;;;5061202;28;20050;-78
2023/09/06 04:16:17;;;;;;;0.00;0.00;;;14.30;99.90;;;;;;5042839;28;20394;-77
2023/09/06 04:18:42;;;;;;;0.45;0.45;;;14.00;99.90;;;;;;5061148;28;20024;-77
2023/09/06 04:21:08;;;;;;;0.17;0.17;;;14.30;99.90;;;;;;5060888;28;20424;-77
2023/09/06 04:23:36;;;;;;;0.10;0.10;;;14.20;99.90;;;;;;5061050;28;20040;-77
2023/09/06 04:26:03;;;;;;;0.10;0.10;;;14.20;99.90;;;;;;5060661;28;20476;-80
2023/09/06 04:28:29;;;;;;;0.05;0.05;;;14.20;99.90;;;;;;5060940;28;20028;-77
2023/09/06 04:30:57;;;;;;;0.35;0.35;;;;;;;;;;5060567;28;20039;-81
2023/09/06 04:33:24;;;;;;;0.00;0.00;;;14.20;99.90;;;;;;5042823;28;20519;-79
2023/09/06 04:35:50;;;;;;;0.10;0.10;;;14.20;99.90;;;;;;5042914;28;20055;-77
2023/09/06 04:38:18;;;;;;;0.35;0.35;;;14.20;99.90;;;;;;5060648;28;20099;-79
2023/09/06 04:40:45;;;;;;;0.55;0.55;;;14.20;99.90;;;;;;5042919;28;20514;-77
2023/09/06 04:43:12;;;;;;;0.10;0.10;;;14.20;99.90;;;;;;5059947;28;20476;-77
2023/09/06 04:45:37;;;;;;;0.10;0.10;;;14.20;99.90;;;;;;5042137;28;20025;-77
2023/09/06 04:48:10;;;;;;;0.10;0.10;;;14.10;99.90;;;;;;5060392;28;20073;-77
2023/09/06 04:50:39;;;;;;;0.15;0.15;;;14.10;99.90;;;;;;5043891;28;20445;-78
2023/09/06 04:53:09;;;;;;;0.20;0.20;;;14.20;99.90;;;;;;5042820;28;20082;-77
2023/09/06 04:55:36;;;;;;;0.00;0.00;;;14.20;99.90;;;;;;5042719;28;20399;-78
2023/09/06 04:58:05;;;;;;;0.80;0.80;;;14.20;99.90;;;;;;5060485;28;20024;-78
2023/09/06 05:00:36;;;;;;;0.20;0.20;;;14.20;99.90;;;;;;5042490;28;20405;-77
2023/09/06 05:03:03;;;;;;;0.10;0.10;;;14.20;99.90;;;;;;5060109;28;20028;-78
2023/09/06 05:05:29;;;;;;;0.10;0.10;;;14.20;99.90;;;;;;5060857;28;20021;-77
2023/09/06 05:07:55;;;;;;;0.10;0.10;;;14.30;99.90;;;;;;5060731;28;20021;-77
2023/09/06 05:10:21;;;;;;;0.10;0.10;;;14.20;99.90;;;;;;5041672;28;20116;-77
2023/09/06 05:12:46;;;;;;;0.00;0.00;;;14.30;99.90;;;;;;5041805;28;20093;-77
2023/09/06 05:15:13;;;;;;;0.10;0.10;;;14.30;99.90;;;;;;5041848;28;20709;-76
2023/09/06 05:17:40;;;;;;;0.10;0.10;;;14.40;99.90;;;;;;5059861;28;20715;-78
2023/09/06 05:20:26;;;;;;;0.10;0.10;;;14.40;99.90;;;;;;5059140;28;20322;-79
2023/09/06 05:22:52;;;;;;;0.10;0.10;;;14.50;99.90;;;;;;5061211;28;20621;-77
2023/09/06 05:25:18;;;;;;;1.15;1.05;;;14.50;99.90;;;;;;5059166;28;20020;-76
2023/09/06 05:27:44;;;;;;;2.28;2.17;;;14.50;99.90;;;;;;5041376;28;20051;-76
2023/09/06 05:30:10;;;;;;;0.10;0.10;;;14.50;99.90;;;;;;5059358;28;20493;-83
2023/09/06 05:32:36;;;;;;;2.92;2.05;;;14.60;99.90;;;;;;5061670;28;20090;-75
2023/09/06 05:35:03;;;;;;;0.75;0.75;;;14.60;99.90;;;;;;5025599;28;20024;-78
2023/09/06 05:37:29;;;;;;;0.20;0.20;;;14.70;99.90;;;;;;5059434;28;20025;-78
2023/09/06 05:39:55;;;;;;;0.10;0.10;;;14.80;99.90;;;;;;5059240;28;20040;-75
2023/09/06 05:42:21;;;;;;;0.00;0.00;;;14.80;99.90;;;;;;5059647;28;20063;-75
2023/09/06 05:44:47;;;;;;;1.00;1.00;;;12.70;99.90;;;;;;5041992;28;20056;-76
2023/09/06 05:47:12;;;;;;;0.10;0.10;;;15.00;99.90;;;;;;5060028;28;20032;-78
2023/09/06 05:49:38;;;;;;;2.63;2.53;;;15.00;99.90;;;;;;5058643;28;20229;-78
2023/09/06 05:52:04;;;;;;;1.95;1.85;;;13.90;99.90;;;;;;5042086;28;20017;-77
2023/09/06 05:54:30;;;;;;;2.22;2.13;;;15.20;99.90;;;;;;5042241;28;20023;-75
2023/09/06 05:56:56;;;;;;;0.90;0.90;;;15.30;99.90;;;;;;5058922;28;20541;-75
2023/09/06 05:59:23;;;;;;;0.10;0.10;;;15.30;99.90;;;;;;5059370;28;20025;-75
2023/09/06 06:01:49;;;;;;;0.28;0.28;;;15.00;99.90;;;;;;5060263;28;20222;-78
2023/09/06 06:04:15;;;;;;;0.15;0.15;;;15.40;99.90;;;;;;5041108;28;20206;-78
2023/09/06 06:06:44;;;;;;;0.10;0.10;;;15.50;99.90;;;;;;5059393;28;20027;-78
2023/09/06 06:09:11;;;;;;;0.10;0.10;;;15.60;99.90;;;;;;5059400;28;20522;-75
2023/09/06 06:11:40;;;;;;;0.00;0.00;;;15.70;99.90;;;;;;5058601;28;20241;-78
2023/09/06 06:14:06;;;;;;;0.10;0.10;;;15.80;99.90;;;;;;5058851;28;20402;-76
2023/09/06 06:16:32;;;;;;;0.22;0.22;;;15.90;99.90;;;;;;5040184;28;20031;-76
2023/09/06 06:18:58;;;;;;;0.10;0.10;;;16.00;99.90;;;;;;5057978;28;20324;-75
2023/09/06 06:21:26;;;;;;;0.20;0.20;;;16.10;99.90;;;;;;5073756;28;20478;-75
2023/09/06 06:23:51;;;;;;;1.30;1.13;;;16.20;99.90;;;;;;5040605;28;20543;-78
2023/09/06 06:26:19;;;;;;;0.10;0.10;;;16.30;99.90;;;;;;5057895;28;20108;-76
2023/09/06 06:28:45;;;;;;;0.10;0.10;;;16.40;99.90;;;;;;5058573;28;20013;-76
2023/09/06 06:31:12;;;;;;;0.10;0.10;;;16.50;99.90;;;;;;5057797;28;20032;-75
2023/09/06 06:33:38;;;;;;;0.30;0.30;;;16.50;99.90;;;;;;5072864;28;20027;-75
2023/09/06 06:36:05;;;;;;;2.05;1.95;;;16.60;99.90;;;;;;5039672;28;20052;-75
2023/09/06 06:38:31;;;;;;;0.35;0.35;;;16.70;99.90;;;;;;5057466;28;20025;-76
2023/09/06 06:40:57;;;;;;;0.10;0.10;;;16.70;99.90;;;;;;5039468;28;20035;-75
2023/09/06 06:43:23;;;;;;;0.20;0.20;;;16.70;99.90;;;;;;5057521;28;20033;-75
2023/09/06 06:45:53;;;;;;;0.22;0.22;;;16.80;99.90;;;;;;5057245;28;20067;-76
2023/09/06 06:48:20;;;;;;;0.10;0.10;;;16.90;99.90;;;;;;5057866;28;20329;-77
2023/09/06 06:50:46;;;;;;;0.10;0.10;;;16.90;99.90;;;;;;5039810;28;20329;-76
2023/09/06 06:53:12;;;;;;;0.40;0.40;;;17.10;99.90;;;;;;5039773;28;20024;-76
2023/09/06 06:55:38;;;;;;;1.08;0.90;;;17.30;99.90;;;;;;5057587;28;20501;-77
2023/09/06 06:58:05;;;;;;;0.57;0.57;;;17.50;99.90;;;;;;5058443;28;20216;-81
2023/09/06 07:00:31;;;;;;;0.10;0.10;;;17.60;99.90;;;;;;5057317;28;20531;-78
2023/09/06 07:03:00;;;;;;;0.10;0.10;;;18.30;99.90;;;;;;5040144;28;20060;-77
2023/09/06 07:05:27;;;;;;;1.67;1.58;;;17.80;99.90;;;;;;5057823;28;20023;-78
2023/09/06 07:07:53;;;;;;;0.10;0.10;;;18.00;99.90;;;;;;5057591;28;20035;-78
2023/09/06 07:10:21;;;;;;;0.00;0.00;;;18.10;99.90;;;;;;5057419;28;20576;-78
2023/09/06 07:12:48;;;;;;;0.50;0.50;;;18.20;99.90;;;;;;5057340;28;20075;-75
2023/09/06 07:15:14;;;;;;;0.00;0.00;;;18.20;99.90;;;;;;5039837;28;20229;-75
2023/09/06 07:17:41;;;;;;;1.55;1.45;;;18.40;99.90;;;;;;5057609;28;20048;-78
2023/09/06 07:20:07;;;;;;;0.00;0.00;;;18.50;99.90;;;;;;5022869;28;20596;-75
2023/09/06 07:22:33;;;;;;;0.40;0.40;;;18.60;99.90;;;;;;5060916;28;20086;-76
2023/09/06 07:24:58;;;;;;;0.55;0.55;;;18.70;99.90;;;;;;5061936;28;20437;-78
2023/09/06 07:27:26;;;;;;;0.47;0.47;;;18.80;99.90;;;;;;5043954;28;20125;-76
2023/09/06 07:29:51;;;;;;;0.75;0.75;;;19.00;99.90;;;;;;5062896;28;20025;-76
2023/09/06 07:32:17;;;;;;;0.25;0.22;;;19.10;99.90;;;;;;5077096;28;20039;-76
2023/09/06 07:34:44;;;;;;;0.10;0.10;;;19.20;99.90;;;;;;5061975;28;20472;-77
2023/09/06 07:37:10;;;;;;;0.47;0.43;;;17.60;99.90;;;;;;5077225;28;20031;-75
2023/09/06 07:39:36;;;;;;;0.08;0.08;;;19.40;99.90;;;;;;5061338;28;20020;-76
2023/09/06 07:42:04;;;;;;;2.13;2.00;;;19.50;99.90;;;;;;5061387;28;20362;-76
2023/09/06 07:44:32;;;;;;;0.10;0.10;;;19.70;99.90;;;;;;5043215;28;20112;-79
2023/09/06 07:47:02;;;;;;;0.00;0.00;;;19.70;99.90;;;;;;5043372;28;20029;-76
2023/09/06 07:49:31;;;;;;;1.45;1.35;;;19.90;99.90;;;;;;5060828;28;20581;-76
2023/09/06 07:51:57;;;;;;;8.48;8.18;;;20.00;99.90;;;;;;5060848;28;20494;-79
2023/09/06 07:54:23;;;;;;;0.10;0.10;;;19.50;99.90;;;;;;5042271;28;20513;-76
2023/09/06 07:56:50;;;;;;;11.10;1.65;;;19.70;99.90;;;;;;5061296;28;20108;-78
2023/09/06 07:59:20;;;;;;;0.85;0.85;;;20.30;99.90;;;;;;5076100;28;20082;-77
2023/09/06 08:01:45;;;;;;;0.00;0.00;;;20.20;99.90;;;;;;5060891;28;20016;-79
2023/09/06 08:04:11;;;;;;;0.00;0.00;;;20.20;99.90;;;;;;5060420;28;20030;-78
2023/09/06 08:06:37;;;;;;;0.10;0.10;;;20.40;99.90;;;;;;5060453;28;20042;-78
2023/09/06 08:09:03;;;;;;;7.78;1.65;;;20.40;99.90;;;;;;5060616;28;20021;-79
2023/09/06 08:11:29;;;;;;;0.10;0.10;;;20.30;99.90;;;;;;5042676;28;20177;-78
2023/09/06 08:13:55;;;;;;;18.02;17.20;;;;;;;;;;5042352;28;20546;-78
2023/09/06 08:16:20;;;;;;;0.00;0.00;;;20.80;99.90;;;;;;5061046;28;20028;-79
2023/09/06 08:18:46;;;;;;;0.30;0.30;;;20.80;99.90;;;;;;5060178;28;20535;-78
2023/09/06 08:21:15;;;;;;;0.10;0.10;;;20.80;99.90;;;;;;5060391;28;20024;-78
2023/09/06 08:23:41;;;;;;;1.13;1.02;;;21.40;99.90;;;;;;5061045;28;20109;-80
2023/09/06 08:26:07;;;;;;;0.00;0.00;;;20.90;99.90;;;;;;5043797;28;20119;-78
2023/09/06 08:28:33;;;;;;;0.10;0.10;;;20.80;99.90;;;;;;5046557;28;20013;-78
2023/09/06 08:31:01;;;;;;;0.10;0.10;;;20.80;99.90;;;;;;5061066;28;20037;-79
2023/09/06 08:33:27;;;;;;;0.10;0.10;;;21.40;99.90;;;;;;5062574;28;20016;-77
2023/09/06 08:35:53;;;;;;;1.63;1.55;;;19.70;99.90;;;;;;5062745;28;20032;-78
2023/09/06 08:38:19;;;;;;;1.20;1.10;;;21.40;99.90;;;;;;5063079;28;20024;-77
2023/09/06 08:40:45;;;;;;;0.00;0.00;;;21.70;99.90;;;;;;5077939;28;20362;-77
2023/09/06 08:43:14;;;;;;;0.30;0.30;;;21.60;99.90;;;;;;5062696;28;20084;-77
2023/09/06 08:45:42;;;;;;;0.75;0.40;;;21.80;99.90;;;;;;5042401;28;20446;-78
2023/09/06 08:48:09;;;;;;;0.43;0.43;;;22.00;99.90;;;;;;5062058;28;20211;-80
2023/09/06 08:50:35;;;;;;;0.10;0.10;;;22.20;99.90;;;;;;5061648;28;20386;-77
2023/09/06 08:53:03;;;;;;;0.00;0.00;;;22.00;99.90;;;;;;5063184;28;20036;-77
2023/09/06 08:55:30;;;;;;;1.00;0.85;;;21.80;99.90;;;;;;5061307;28;20482;-78
2023/09/06 08:57:57;;;;;;;0.00;0.00;;;21.80;99.90;;;;;;5061588;28;20024;-77
2023/09/06 09:00:23;;;;;;;0.80;0.77;;;22.00;99.90;;;;;;5043300;28;20275;-78
2023/09/06 09:02:50;;;;;;;2.28;2.17;;;22.10;99.90;;;;;;5043790;28;20174;-79
2023/09/06 09:05:20;;;;;;;0.00;0.00;;;19.70;99.90;;;;;;5062152;28;20025;-90
2023/09/06 09:07:47;;;;;;;0.10;0.10;;;22.40;99.90;;;;;;5060581;28;20028;-77
2023/09/06 09:10:13;;;;;;;0.08;0.08;;;22.40;99.90;;;;;;5043075;28;20333;-78
2023/09/06 09:12:39;;;;;;;0.13;0.13;;;22.40;99.90;;;;;;5059749;28;20331;-78
2023/09/06 09:15:07;;;;;;;1.27;1.17;;;22.40;99.90;;;;;;5053675;28;20456;-79
2023/09/06 09:17:38;;;;;;;0.75;0.75;;;25.20;99.90;;;;;;5061312;28;20019;-81
2023/09/06 09:20:05;;;;;;;1.23;1.13;;;22.50;99.90;;;;;;5059569;28;20020;-80
2023/09/06 09:22:37;;;;;;;0.20;0.20;;;22.50;99.90;;;;;;5059554;28;20099;-79
2023/09/06 09:25:23;;;;;;;0.10;0.10;;;22.40;99.90;;;;;;5060395;28;20025;-77
2023/09/06 09:27:56;;;;;;;0.00;0.00;;;22.80;99.90;;;;;;5042140;28;20055;-78
2023/09/06 09:30:22;;;;;;;0.03;0.03;;;23.10;99.90;;;;;;5059900;28;20016;-77
2023/09/06 09:32:48;;;;;;;0.03;0.03;;;23.50;99.90;;;;;;5061121;28;20039;-80
2023/09/06 09:35:14;;;;;;;0.38;0.35;;;23.60;99.90;;;;;;5060316;28;20302;-77
2023/09/06 09:37:41;;;;;;;0.00;0.00;;;23.60;99.90;;;;;;5060250;28;20039;-77
2023/09/06 09:40:18;;;;;;;3.03;2.92;;;23.90;99.90;;;;;;5059588;28;20110;-77
2023/09/06 09:42:57;;;;;;;0.00;0.00;;;24.30;99.90;;;;;;5057868;28;20016;-78
2023/09/06 09:45:24;;;;;;;0.00;0.00;;;24.40;99.90;;;;;;5039000;28;20502;-77
2023/09/06 09:47:57;;;;;;;0.20;0.20;;;24.80;99.50;;;;;;5041539;28;20017;-77
2023/09/06 09:50:29;;;;;;;0.03;0.03;;;25.20;97.40;;;;;;5059046;28;20309;-77
2023/09/06 09:52:56;;;;;;;0.40;0.40;;;25.20;95.70;;;;;;5059233;28;20017;-77
2023/09/06 09:55:34;;;;;;;0.00;0.00;;;25.40;94.70;;;;;;5059340;28;20707;-80
2023/09/06 09:58:05;;;;;;;0.20;0.20;;;25.40;94.10;;;;;;5058983;28;20471;-78
2023/09/06 10:00:32;;;;;;;0.00;0.00;;;25.50;93.90;;;;;;5058572;28;20029;-77
2023/09/06 10:02:59;;;;;;;0.00;0.00;;;25.60;93.10;;;;;;5059003;28;20348;-78
2023/09/06 10:05:29;;;;;;;0.10;0.10;;;25.80;93.10;;;;;;5058776;28;20021;-77
2023/09/06 10:08:00;;;;;;;0.03;0.03;;;26.00;93.10;;;;;;5040915;28;20021;-78
2023/09/06 10:10:27;;;;;;;0.15;0.15;;;26.10;92.40;;;;;;5040210;28;20038;-77
2023/09/06 10:12:56;;;;;;;0.00;0.00;;;26.40;92.00;;;;;;5040450;28;20309;-77
2023/09/06 10:15:24;;;;;;;0.00;0.00;;;25.80;92.30;;;;;;5058484;28;20016;-77
2023/09/06 10:17:54;;;;;;;0.10;0.10;;;25.90;92.10;;;;;;5058325;28;20155;-78
2023/09/06 10:20:23;;;;;;;2.08;1.02;;;25.90;91.40;;;;;;5058001;28;20019;-76
2023/09/06 10:22:52;;;;;;;1.60;1.25;;;27.30;91.90;;;;;;5040062;28;20601;-78
2023/09/06 10:25:18;;;;;;;2.40;2.03;;;25.70;91.10;;;;;;5058281;28;20029;-78
2023/09/06 10:27:55;;;;;;;2.92;2.75;;;25.90;91.40;;;;;;5040081;28;20045;-77
2023/09/06 10:30:28;;;;;;;0.00;0.00;;;25.90;90.70;;;;;;5058180;28;20474;-77
2023/09/06 10:32:56;;;;;;;0.00;0.00;;;25.90;90.50;;;;;;5058088;28;20072;-77
2023/09/06 10:35:29;;;;;;;0.00;0.00;;;25.70;89.80;;;;;;5058161;28;20044;-77
2023/09/06 10:38:14;;;;;;;0.52;0.52;;;25.60;89.50;;;;;;5058520;28;20501;-78
2023/09/06 10:40:49;;;;;;;0.65;0.57;;;26.30;90.40;;;;;;5057908;28;20098;-80
2023/09/06 10:43:16;;;;;;;0.17;0.17;;;25.30;90.00;;;;;;5051198;28;20021;-82
2023/09/06 10:45:54;;;;;;;0.00;0.00;;;25.40;89.20;;;;;;5056875;28;20102;-77
2023/09/06 10:48:20;;;;;;;0.00;0.00;;;23.30;87.80;;;;;;5057641;28;20154;-78
2023/09/06 10:51:06;;;;;;;0.45;0.25;;;26.10;90.00;;;;;;5039562;28;20066;-78
2023/09/06 10:53:33;;;;;;;0.00;0.00;;;26.60;87.70;;;;;;5057531;28;20027;-78
2023/09/06 10:56:02;;;;;;;0.00;0.00;;;26.80;88.00;;;;;;5007749;28;20131;-79
2023/09/06 10:58:29;;;;;;;0.00;0.00;;;27.20;85.30;;;;;;5040135;28;20211;-81
2023/09/06 11:01:17;;;;;;;0.00;0.00;;;27.60;85.30;;;;;;5039624;28;20032;-78
2023/09/06 11:03:54;;;;;;;0.00;0.00;;;28.00;82.50;;;;;;5057827;28;20021;-79
2023/09/06 11:06:20;;;;;;;0.00;0.00;;;27.60;80.50;;;;;;5058248;28;20044;-78
2023/09/06 11:08:47;;;;;;;0.10;0.10;;;27.20;81.80;;;;;;5057514;28;20052;-77
2023/09/06 11:11:14;;;;;;;0.00;0.00;;;27.10;80.80;;;;;;5057289;28;20036;-78
2023/09/06 11:13:42;;;;;;;0.00;0.00;;;27.20;81.90;;;;;;5057497;28;20290;-77
2023/09/06 11:16:15;;;;;;;0.13;0.13;;;27.40;81.90;;;;;;5057530;28;20040;-76
2023/09/06 11:18:48;;;;;;;0.90;0.32;;;27.80;80.30;;;;;;5056733;28;20034;-77
2023/09/06 11:21:21;;;;;;;0.32;0.20;;;27.90;80.00;;;;;;5057123;28;20059;-76
2023/09/06 11:23:49;;;;;;;0.10;0.10;;;28.00;78.20;;;;;;5057203;28;20043;-77
2023/09/06 11:26:15;;;;;;;0.00;0.00;;;28.20;78.20;;;;;;5057160;28;20407;-76
2023/09/06 11:28:43;;;;;;;0.10;0.10;;;28.20;77.80;;;;;;5057225;28;20021;-76
2023/09/06 11:31:29;;;;;;;0.03;0.03;;;27.90;77.70;;;;;;5057238;28;20150;-76
2023/09/06 11:34:01;;;;;;;0.00;0.00;;;27.80;78.20;;;;;;5058282;28;20142;-78
2023/09/06 11:36:30;;;;;;;0.47;0.30;;;27.80;78.00;;;;;;5057390;28;20016;-78
2023/09/06 11:38:57;;;;;;;1.02;0.68;;;27.80;77.30;;;;;;5057147;28;20375;-76
2023/09/06 11:41:24;;;;;;;0.10;0.10;;;28.00;77.10;;;;;;5022466;28;20021;-77
2023/09/06 11:43:56;;;;;;;0.00;0.00;;;28.20;76.70;;;;;;5057084;28;20020;-76
2023/09/06 11:46:24;;;;;;;0.00;0.00;;;28.80;77.10;;;;;;5057001;28;20631;-75
2023/09/06 11:48:52;;;;;;;0.10;0.10;;;28.90;75.40;;;;;;5057016;28;20506;-75
2023/09/06 11:51:21;;;;;;;0.63;0.22;;;29.10;75.10;;;;;;5056840;28;20444;-75
2023/09/06 11:53:58;;;;;;;0.00;0.00;;;28.90;74.90;;;;;;5056952;28;20055;-77
2023/09/06 11:56:29;;;;;;;0.00;0.00;;;29.00;74.20;;;;;;5057445;28;20035;-78
2023/09/06 11:58:57;;;;;;;0.08;0.05;;;28.60;74.70;;;;;;5056891;28;20099;-77
2023/09/06 12:01:25;;;;;;;0.15;0.15;;;28.40;75.00;;;;;;5056982;28;20020;-76
2023/09/06 12:03:53;;;;;;;0.00;0.00;;;28.50;74.70;;;;;;5056952;28;20020;-75
2023/09/06 12:06:19;;;;;;;0.00;0.00;;;28.40;74.10;;;;;;5056764;28;20024;-76
2023/09/06 12:08:46;;;;;;;0.05;0.05;;;28.70;73.00;;;;;;5061114;28;20024;-79
2023/09/06 12:11:15;;;;;;;0.00;0.00;;;29.20;73.20;;;;;;5060524;28;20086;-76
2023/09/06 12:13:41;;;;;;;0.85;0.50;;;29.30;72.10;;;;;;5052054;28;20455;-77
2023/09/06 12:16:09;;;;;;;0.13;0.13;;;29.60;74.00;;;;;;5041557;28;20534;-78
2023/09/06 12:18:38;;;;;;;0.10;0.10;;;29.90;71.70;;;;;;5041668;28;20028;-76
2023/09/06 12:21:05;;;;;;;0.10;0.10;;;30.00;71.30;;;;;;5060287;28;20107;-75
2023/09/06 12:23:33;;;;;;;0.35;0.22;;;30.40;70.60;;;;;;5042597;28;20071;-76
2023/09/06 12:26:00;;;;;;;0.30;0.25;;;30.60;70.90;;;;;;5060414;28;20356;-76
2023/09/06 12:28:28;;;;;;;0.10;0.10;;;30.50;70.30;;;;;;5060440;28;20220;-75
2023/09/06 12:30:55;;;;;;;0.10;0.10;;;30.30;70.20;;;;;;5059883;28;20430;-79
2023/09/06 12:33:26;;;;;;;0.10;0.10;;;30.20;69.10;;;;;;5060347;28;20573;-78
2023/09/06 12:35:58;;;;;;;1.67;1.58;;;30.00;70.30;;;;;;5060153;28;20395;-76
2023/09/06 12:38:29;;;;;;;7.17;1.47;;;30.30;69.80;;;;;;5059755;28;20024;-76
2023/09/06 12:40:56;;;;;;;0.10;0.10;;;30.60;69.30;;;;;;5060384;28;20025;-77
2023/09/06 12:43:22;;;;;;;0.00;0.00;;;30.40;68.70;;;;;;5052454;28;20194;-75
2023/09/06 12:45:48;;;;;;;2.08;0.52;;;29.90;69.00;;;;;;5042079;28;20124;-75
2023/09/06 12:48:15;;;;;;;0.30;0.30;;;29.70;70.00;;;;;;5060727;28;20221;-75
2023/09/06 12:50:41;;;;;;;1.75;1.45;;;29.10;70.70;;;;;;5060417;28;20013;-77
2023/09/06 12:53:10;;;;;;;1.10;1.10;;;29.00;70.70;;;;;;5059863;28;20039;-75